Lowden, Washington
Current Conditions -  °F | °C
As of 7:53 AM on Tuesday 21 Oct 2014 (Local Time) from KALW Reporting Station
Overcast Overcast  
Wind Chill: 53°   Ceiling: 7500
Heat Index: 53°   Visibility: 10mi
Dew Point: 45°   Wind: 10mph
Humidity: 74%   Direction: 190°S
Pressure: 29.94"   Gusts: NA
Location:  46.1196°N, 118.708°W
Report Text: KALW 211453Z 19009KT 10SM FEW060 BKN075 OVC090 12/07 A2994 RMK AO2 SLP138 T01170072 51019
Loading
Personal Weather Stations






























Interactive Weather Map
Tropical Storm Tracking
New forecast layout! Learn more

10-Day Weather Forecast

Advertisements
Track Severe Weather on mobile